Upstream stations:
Downstream station:
SHEF ID: CAMK1 Grouse Creek nr Cameron KS
STATION TYPE:
PRECIP STAGE RIV-FLOW VOLTAGE BAT-LOAD
in ft cfs volt volt
Ccp-Rev Ccp-Rev Ccp-Rev Ccp-Rev Ccp-Rev
(US/Central)
08/02 00:00 0.00 11.51 226 12.83 12.53
08/02 01:00 0.00 11.49 221 12.81 12.53
08/02 02:00 0.00 11.48 219 12.80 12.50
08/02 03:00 0.00 11.47 217 12.77 12.48
08/02 04:00 0.00 11.47 217 12.76 12.47
08/02 05:00 0.00 11.46 215 12.74 12.45
08/02 06:00 0.00 11.46 215 12.72 12.40
08/02 07:00 0.00 11.45 212 12.75 12.40
08/02 08:00 0.00 11.45 212 13.78 12.96
08/02 09:00 0.00 11.44 210 13.51 13.26
08/02 10:00 0.00 11.43 208 13.50 13.26
08/02 11:00 0.00 11.42 206 13.50 13.29
08/02 12:00 0.00 11.40 202 13.72 13.27
08/02 13:00 0.00 11.39 200 13.78 13.19
08/02 14:00 0.00 11.37 195 13.81 13.09
08/02 15:00 0.00 11.35 191 13.90 13.13
08/02 16:00 0.00 11.34 189 13.69 13.09
08/02 17:00 0.00 11.31 184 14.02 13.05
08/02 18:00 0.00 11.30 182 13.53 13.05
08/02 19:00 0.00 11.29 180 14.34 13.12
08/02 20:00 0.00 11.27 176 13.34 13.09
08/02 21:00 0.00 11.26 174 13.05 12.81
08/02 22:00 0.00 11.25 173 12.91 12.66
08/02 23:00 0.00 11.23 169 12.86 12.58